createdAt,value
2023-04-26T00:00:55.345Z,99904.22
2023-04-26T00:03:23.265Z,99903.72
2023-04-26T00:05:50.693Z,99901.59
2023-04-26T00:08:17.739Z,99908.19
2023-04-26T00:10:44.678Z,99902.53
2023-04-26T00:13:11.640Z,99904.88
2023-04-26T00:15:38.582Z,99906.38
2023-04-26T00:18:05.990Z,99904.19
2023-04-26T00:20:33.499Z,99910.16
2023-04-26T00:23:00.421Z,99914.44
2023-04-26T00:25:27.365Z,99911.41
2023-04-26T00:27:54.322Z,99912.88
2023-04-26T00:30:22.352Z,99920.50
2023-04-26T00:32:49.793Z,99914.19
2023-04-26T00:35:16.836Z,99911.19
2023-04-26T00:37:43.999Z,99911.47
2023-04-26T00:40:12.177Z,99909.34
2023-04-26T00:42:40.327Z,99907.69
2023-04-26T00:45:08.381Z,99902.69
2023-04-26T00:47:36.350Z,99916.91
2023-04-26T00:50:04.571Z,99913.63
2023-04-26T00:52:32.167Z,99902.50
2023-04-26T00:54:59.273Z,99916.06
2023-04-26T00:57:26.309Z,99914.53
2023-04-26T00:59:53.454Z,99915.69
2023-04-26T01:02:20.911Z,99915.19
2023-04-26T01:04:48.662Z,99922.63
2023-04-26T01:07:17.141Z,99918.63
2023-04-26T01:09:44.478Z,99922.59
2023-04-26T01:12:13.067Z,99913.13
2023-04-26T01:14:41.043Z,99916.75
2023-04-26T01:17:08.063Z,99915.28
2023-04-26T01:19:37.414Z,99916.25
2023-04-26T01:22:04.435Z,99920.88
2023-04-26T01:24:32.921Z,99915.72
2023-04-26T01:26:59.859Z,99923.00
2023-04-26T01:29:27.319Z,99917.84
2023-04-26T01:31:54.245Z,99923.31
2023-04-26T01:34:21.702Z,99915.53
2023-04-26T01:36:48.610Z,99915.84
2023-04-26T01:39:15.762Z,99906.41
2023-04-26T01:41:42.951Z,99914.66
2023-04-26T01:44:09.913Z,99921.91
2023-04-26T01:46:37.115Z,99915.78
2023-04-26T01:49:04.845Z,99912.31
2023-04-26T01:51:32.580Z,99916.09
2023-04-26T01:53:59.686Z,99906.50
2023-04-26T01:56:26.813Z,99912.78
2023-04-26T01:58:56.251Z,99907.63
2023-04-26T02:01:23.753Z,99906.13
2023-04-26T02:03:51.205Z,99906.31
2023-04-26T02:06:20.279Z,99905.59
2023-04-26T02:08:47.296Z,99905.78
2023-04-26T02:11:14.221Z,99902.28
2023-04-26T02:13:41.248Z,99905.25
2023-04-26T02:16:08.300Z,99912.50
2023-04-26T02:18:35.434Z,99906.72
2023-04-26T02:21:02.408Z,99912.44
2023-04-26T02:23:31.511Z,99908.31
2023-04-26T02:25:58.552Z,99909.59
2023-04-26T02:28:25.520Z,99908.25
2023-04-26T02:30:56.679Z,99914.66
2023-04-26T02:33:24.567Z,99906.06
2023-04-26T02:35:51.933Z,99915.09
2023-04-26T02:38:19.676Z,99909.97
2023-04-26T02:40:46.671Z,99912.94
2023-04-26T02:43:14.064Z,99918.41
2023-04-26T02:45:42.975Z,99921.31
2023-04-26T02:48:11.796Z,99919.81
2023-04-26T02:50:39.309Z,99914.81
2023-04-26T02:53:06.403Z,99913.16
2023-04-26T02:55:33.787Z,99912.50
2023-04-26T02:58:00.770Z,99910.84
2023-04-26T03:00:28.514Z,99918.78
2023-04-26T03:02:56.906Z,99917.09
2023-04-26T03:05:24.501Z,99916.25
2023-04-26T03:07:51.912Z,99917.41
2023-04-26T03:10:18.872Z,99908.81
2023-04-26T03:12:45.815Z,99912.44
2023-04-26T03:15:12.756Z,99909.09
2023-04-26T03:17:43.060Z,99906.59
2023-04-26T03:20:11.565Z,99913.03
2023-04-26T03:22:39.053Z,99911.38
2023-04-26T03:25:07.760Z,99913.31
2023-04-26T03:27:34.906Z,99910.84
2023-04-26T03:30:01.916Z,99912.94
2023-04-26T03:32:31.071Z,99913.91
2023-04-26T03:34:58.571Z,99910.59
2023-04-26T03:37:25.651Z,99918.69
2023-04-26T03:39:59.111Z,99918.84
2023-04-26T03:42:26.176Z,99919.13
2023-04-26T03:44:54.185Z,99923.91
2023-04-26T03:47:22.514Z,99920.84
2023-04-26T03:49:49.710Z,99922.69
2023-04-26T03:52:16.803Z,99925.59
2023-04-26T03:54:43.731Z,99924.25
2023-04-26T03:57:11.792Z,99921.88
2023-04-26T03:59:38.828Z,99918.03
2023-04-26T04:02:06.180Z,99911.69
2023-04-26T04:04:33.393Z,99908.66
2023-04-26T04:07:00.869Z,99908.44
2023-04-26T04:09:27.793Z,99908.84
2023-04-26T04:11:54.840Z,99910.28
2023-04-26T04:14:21.835Z,99911.53
2023-04-26T04:16:48.851Z,99911.84
2023-04-26T04:19:15.871Z,99920.03
2023-04-26T04:21:43.510Z,99909.94
2023-04-26T04:24:11.391Z,99911.03
2023-04-26T04:26:39.028Z,99907.72
2023-04-26T04:29:09.198Z,99916.59
2023-04-26T04:31:38.449Z,99916.88
2023-04-26T04:34:05.481Z,99919.69
2023-04-26T04:36:33.949Z,99922.47
2023-04-26T04:39:00.879Z,99927.75
2023-04-26T04:41:27.874Z,99926.09
2023-04-26T04:43:55.166Z,99929.69
2023-04-26T04:46:23.363Z,99936.63
2023-04-26T04:48:50.651Z,99933.00
2023-04-26T04:51:17.752Z,99934.66
2023-04-26T04:53:44.706Z,99935.50
2023-04-26T04:56:11.906Z,99941.50
2023-04-26T04:58:39.047Z,99948.28
2023-04-26T05:01:06.190Z,99943.81
2023-04-26T05:03:45.689Z,99946.31
2023-04-26T05:06:13.281Z,99946.03
2023-04-26T05:08:40.757Z,99947.69
2023-04-26T05:11:09.021Z,99957.94
2023-04-26T05:13:36.813Z,99957.69
2023-04-26T05:16:04.819Z,99957.38
2023-04-26T05:18:32.094Z,99961.41
2023-04-26T05:20:59.311Z,99965.41
2023-04-26T05:23:27.367Z,99972.06
2023-04-26T05:25:54.420Z,99975.09
2023-04-26T05:28:53.538Z,99976.19
2023-04-26T05:31:29.353Z,99977.25
2023-04-26T05:34:16.626Z,99982.94
2023-04-26T05:36:48.694Z,99979.72
2023-04-26T05:39:15.831Z,99969.50
2023-04-26T05:41:43.153Z,99971.56
2023-04-26T05:44:10.839Z,99984.34
2023-04-26T05:46:38.330Z,99983.91
2023-04-26T05:49:05.584Z,99984.28
2023-04-26T05:51:33.996Z,99981.03
2023-04-26T05:54:01.137Z,99983.91
2023-04-26T05:56:30.932Z,99980.81
2023-04-26T05:58:58.425Z,99979.41
2023-04-26T06:01:25.832Z,99986.91
2023-04-26T06:03:55.184Z,99990.72
2023-04-26T06:06:24.175Z,99993.75
2023-04-26T06:08:51.534Z,99994.13
2023-04-26T06:11:18.597Z,99997.28
2023-04-26T06:13:45.737Z,99997.69
2023-04-26T06:16:12.727Z,100006.97
2023-04-26T06:18:39.756Z,100002.22
2023-04-26T06:21:07.030Z,100008.03
2023-04-26T06:23:33.951Z,100004.09
2023-04-26T06:26:01.073Z,100006.94
2023-04-26T06:28:28.108Z,100007.50
2023-04-26T06:30:55.092Z,100010.34
2023-04-26T06:33:22.153Z,100003.63
2023-04-26T06:35:49.100Z,100005.81
2023-04-26T06:38:16.117Z,100008.69
2023-04-26T06:40:43.277Z,100009.03
2023-04-26T06:43:10.880Z,100010.06
2023-04-26T06:45:37.802Z,100004.16
2023-04-26T06:48:05.408Z,100003.38
2023-04-26T06:50:33.280Z,100001.75
2023-04-26T06:53:00.462Z,100007.13
2023-04-26T06:55:27.446Z,100000.88
2023-04-26T06:57:54.367Z,100001.75
2023-04-26T07:00:21.944Z,100002.47
2023-04-26T07:02:48.953Z,99994.53
2023-04-26T07:05:16.091Z,99988.31
2023-04-26T07:07:43.191Z,99992.66
2023-04-26T07:10:10.485Z,99991.69
2023-04-26T07:12:37.451Z,99990.72
2023-04-26T07:15:06.710Z,99986.09
2023-04-26T07:17:33.882Z,99987.63
2023-04-26T07:20:00.943Z,99986.63
2023-04-26T07:22:28.126Z,99987.31
2023-04-26T07:24:55.051Z,99985.47
2023-04-26T07:27:22.034Z,99987.81
2023-04-26T07:29:48.939Z,99990.13
2023-04-26T07:32:16.104Z,99996.09
2023-04-26T07:34:43.048Z,99986.13
2023-04-26T07:37:09.973Z,99990.25
2023-04-26T07:39:36.913Z,99983.59
2023-04-26T07:42:03.987Z,99985.22
2023-04-26T07:44:30.902Z,99983.38
2023-04-26T07:46:57.956Z,99986.03
2023-04-26T07:49:25.003Z,99988.00
2023-04-26T07:51:52.413Z,99991.97
2023-04-26T07:54:19.411Z,99987.16
2023-04-26T07:56:46.416Z,99994.94
2023-04-26T07:59:13.360Z,99994.25
2023-04-26T08:01:40.612Z,99994.84
2023-04-26T08:04:08.762Z,99990.16
2023-04-26T08:06:36.129Z,99999.75
2023-04-26T08:09:04.926Z,100001.22
2023-04-26T08:11:31.933Z,99997.34
2023-04-26T08:13:58.856Z,99996.94
2023-04-26T08:16:25.865Z,99992.22
2023-04-26T08:18:52.851Z,99997.31
2023-04-26T08:21:19.775Z,99990.75
2023-04-26T08:23:46.842Z,99993.63
2023-04-26T08:26:13.784Z,99998.50
2023-04-26T08:28:40.957Z,99997.91
2023-04-26T08:31:08.234Z,99991.97
2023-04-26T08:33:35.276Z,99996.38
2023-04-26T08:36:02.287Z,99992.63
2023-04-26T08:38:29.574Z,99994.38
2023-04-26T08:41:01.871Z,99994.84
2023-04-26T08:43:29.745Z,99989.97
2023-04-26T08:45:59.515Z,99988.13
2023-04-26T08:48:30.342Z,99988.97
2023-04-26T08:50:57.543Z,99987.59
2023-04-26T08:53:26.104Z,99980.84
2023-04-26T08:55:54.263Z,99988.59
2023-04-26T08:58:22.439Z,99974.97
2023-04-26T09:00:50.928Z,99977.53
2023-04-26T09:03:23.069Z,99967.59
2023-04-26T09:05:50.716Z,99973.25
2023-04-26T09:08:18.183Z,99973.44
2023-04-26T09:10:45.496Z,99970.66
2023-04-26T09:13:12.889Z,99978.34
2023-04-26T09:15:40.434Z,99968.38
2023-04-26T09:18:23.682Z,99972.03
2023-04-26T09:21:08.728Z,99971.03
2023-04-26T09:23:35.970Z,99968.50
2023-04-26T09:26:20.836Z,99961.03
2023-04-26T09:28:48.291Z,99962.41
2023-04-26T09:31:40.689Z,99961.28
2023-04-26T09:34:11.288Z,99956.81
2023-04-26T09:36:47.336Z,99956.25
2023-04-26T09:39:14.589Z,99955.22
2023-04-26T09:41:45.357Z,99958.31
2023-04-26T09:44:23.223Z,99956.25
2023-04-26T09:47:10.205Z,99961.81
2023-04-26T09:49:50.302Z,99961.38
2023-04-26T09:52:19.231Z,99963.81
2023-04-26T09:54:52.417Z,99967.16
2023-04-26T09:57:22.037Z,99962.81
2023-04-26T09:59:53.524Z,99969.41
2023-04-26T10:02:27.578Z,99965.91
2023-04-26T10:04:57.286Z,99966.53
2023-04-26T10:07:26.593Z,99965.94
2023-04-26T10:09:54.520Z,99965.13
2023-04-26T10:12:22.581Z,99965.97
2023-04-26T10:14:49.606Z,99958.19
2023-04-26T10:17:18.774Z,99964.97
2023-04-26T10:19:48.257Z,99951.59
2023-04-26T10:22:25.314Z,99948.72
2023-04-26T10:24:54.581Z,99946.25
2023-04-26T10:27:43.439Z,99945.88
2023-04-26T10:30:17.966Z,99944.88
2023-04-26T10:32:57.294Z,99949.19
2023-04-26T10:35:30.876Z,99943.81
2023-04-26T10:38:00.513Z,99941.38
2023-04-26T10:40:36.160Z,99949.41
2023-04-26T10:43:11.974Z,99945.47
2023-04-26T10:45:40.228Z,99938.03
2023-04-26T10:48:32.836Z,99941.56
2023-04-26T10:51:05.403Z,99939.69
2023-04-26T10:53:34.693Z,99946.72
2023-04-26T10:56:01.684Z,99942.19
2023-04-26T10:58:41.843Z,99936.59
2023-04-26T11:01:20.491Z,99930.66
2023-04-26T11:03:56.969Z,99928.34
2023-04-26T11:06:26.672Z,99929.75
2023-04-26T11:08:54.654Z,99933.28
2023-04-26T11:11:26.857Z,99931.41
2023-04-26T11:13:53.814Z,99918.34
2023-04-26T11:16:20.875Z,99905.31
2023-04-26T11:18:48.355Z,99902.13
2023-04-26T11:21:18.157Z,99909.25
2023-04-26T11:23:54.830Z,99898.34
2023-04-26T11:26:22.684Z,99889.06
2023-04-26T11:28:49.755Z,99899.00
2023-04-26T11:31:19.286Z,99885.38
2023-04-26T11:33:48.478Z,99884.19
2023-04-26T11:36:19.461Z,99880.53
2023-04-26T11:38:46.524Z,99877.38
2023-04-26T11:41:13.527Z,99872.94
2023-04-26T11:43:40.774Z,99879.25
2023-04-26T11:46:09.995Z,99877.22
2023-04-26T11:48:39.262Z,99877.16
2023-04-26T11:51:08.386Z,99873.84
2023-04-26T11:53:40.790Z,99871.22
2023-04-26T11:56:20.649Z,99872.25
2023-04-26T11:58:50.101Z,99865.25
2023-04-26T12:01:30.032Z,99861.75
2023-04-26T12:04:00.848Z,99858.22
2023-04-26T12:06:43.199Z,99853.47
2023-04-26T12:09:11.249Z,99859.59
2023-04-26T12:11:39.611Z,99868.56
2023-04-26T12:14:09.789Z,99861.75
2023-04-26T12:16:37.323Z,99859.16
2023-04-26T12:19:08.983Z,99860.53
2023-04-26T12:21:43.573Z,99866.94
2023-04-26T12:24:33.299Z,99867.44
2023-04-26T12:27:02.823Z,99874.19
2023-04-26T12:29:31.901Z,99863.59
2023-04-26T12:32:00.500Z,99864.78
2023-04-26T12:34:27.866Z,99858.00
2023-04-26T12:36:54.978Z,99868.56
2023-04-26T12:39:21.965Z,99862.91
2023-04-26T12:41:49.338Z,99861.00
2023-04-26T12:44:16.535Z,99861.88
2023-04-26T12:46:43.951Z,99853.97
2023-04-26T12:49:10.968Z,99854.19
2023-04-26T12:51:40.749Z,99860.72
2023-04-26T12:54:07.831Z,99859.72
2023-04-26T12:56:37.843Z,99863.25
2023-04-26T12:59:04.830Z,99858.25
2023-04-26T13:01:31.870Z,99860.66
2023-04-26T13:04:00.980Z,99853.53
2023-04-26T13:06:28.598Z,99853.81
2023-04-26T13:08:55.849Z,99856.19
2023-04-26T13:11:22.856Z,99855.13
2023-04-26T13:13:49.783Z,99852.00
2023-04-26T13:16:16.840Z,99850.03
2023-04-26T13:18:43.925Z,99859.66
2023-04-26T13:21:10.822Z,99850.06
2023-04-26T13:23:37.761Z,99843.94
2023-04-26T13:26:04.993Z,99851.34
2023-04-26T13:28:31.931Z,99850.03
2023-04-26T13:30:59.535Z,99853.88
2023-04-26T13:33:26.592Z,99846.91
2023-04-26T13:35:53.543Z,99847.66
2023-04-26T13:38:20.482Z,99846.84
2023-04-26T13:40:47.516Z,99848.75
2023-04-26T13:43:14.448Z,99849.53
2023-04-26T13:45:41.382Z,99841.03
2023-04-26T13:48:08.378Z,99844.50
2023-04-26T13:50:37.380Z,99844.06
2023-04-26T13:53:04.715Z,99852.00
2023-04-26T13:55:31.660Z,99856.66
2023-04-26T13:57:58.839Z,99850.19
2023-04-26T14:00:25.952Z,99849.56
2023-04-26T14:02:54.190Z,99851.50
2023-04-26T14:05:21.613Z,99849.19
2023-04-26T14:07:48.651Z,99844.78
2023-04-26T14:10:15.907Z,99849.38
2023-04-26T14:12:42.916Z,99844.84
2023-04-26T14:15:10.490Z,99843.94
2023-04-26T14:17:37.552Z,99837.81
2023-04-26T14:20:05.435Z,99840.13
2023-04-26T14:22:32.405Z,99837.16
2023-04-26T14:24:59.450Z,99834.19
2023-04-26T14:27:26.841Z,99840.41
2023-04-26T14:29:53.773Z,99832.22
2023-04-26T14:32:20.783Z,99833.84
2023-04-26T14:34:47.720Z,99837.16
2023-04-26T14:37:15.159Z,99830.66
2023-04-26T14:39:42.740Z,99827.13
2023-04-26T14:42:11.149Z,99812.53
2023-04-26T14:44:38.069Z,99832.28
2023-04-26T14:47:05.009Z,99834.00
2023-04-26T14:49:31.936Z,99822.16
2023-04-26T14:51:58.920Z,99814.75
2023-04-26T14:54:25.916Z,99811.03
2023-04-26T14:56:53.625Z,99815.09
2023-04-26T14:59:21.037Z,99800.53
2023-04-26T15:01:48.545Z,99814.78
2023-04-26T15:04:15.709Z,99814.03
2023-04-26T15:06:42.854Z,99815.22
2023-04-26T15:09:11.393Z,99806.06
2023-04-26T15:11:38.489Z,99803.38
2023-04-26T15:14:05.413Z,99804.50
2023-04-26T15:16:32.458Z,99795.28
2023-04-26T15:18:59.457Z,99793.41
2023-04-26T15:21:27.313Z,99795.28
2023-04-26T15:23:56.185Z,99789.38
2023-04-26T15:26:23.338Z,99788.84
2023-04-26T15:28:51.096Z,99791.00
2023-04-26T15:31:18.046Z,99795.56
2023-04-26T15:33:44.970Z,99794.69
2023-04-26T15:36:11.876Z,99792.19
2023-04-26T15:38:39.425Z,99789.16
2023-04-26T15:41:06.493Z,99792.34
2023-04-26T15:43:33.667Z,99795.00
2023-04-26T15:46:03.644Z,99793.09
2023-04-26T15:48:30.803Z,99783.75
2023-04-26T15:50:57.887Z,99789.38
2023-04-26T15:53:25.134Z,99791.47
2023-04-26T15:55:52.081Z,99792.25
2023-04-26T15:58:19.041Z,99786.03
2023-04-26T16:00:45.975Z,99790.91
2023-04-26T16:03:13.073Z,99786.63
2023-04-26T16:05:40.195Z,99780.19
2023-04-26T16:08:07.260Z,99786.22
2023-04-26T16:10:35.364Z,99770.81
2023-04-26T16:13:03.823Z,99774.38
2023-04-26T16:15:31.576Z,99775.75
2023-04-26T16:17:58.621Z,99770.06
2023-04-26T16:20:25.974Z,99777.44
2023-04-26T16:22:52.976Z,99778.28
2023-04-26T16:25:20.024Z,99767.19
2023-04-26T16:27:49.370Z,99766.06
2023-04-26T16:30:16.456Z,99775.59
2023-04-26T16:32:43.499Z,99768.25
2023-04-26T16:35:10.931Z,99768.53
2023-04-26T16:37:39.821Z,99764.16
2023-04-26T16:40:10.526Z,99772.50
2023-04-26T16:42:37.523Z,99765.09
2023-04-26T16:45:04.981Z,99769.78
2023-04-26T16:47:31.918Z,99774.41
2023-04-26T16:49:58.844Z,99770.31
2023-04-26T16:52:25.919Z,99772.22
2023-04-26T16:54:52.862Z,99776.78
2023-04-26T16:57:19.823Z,99779.63
2023-04-26T16:59:47.078Z,99782.53
2023-04-26T17:02:14.157Z,99779.47
2023-04-26T17:04:41.884Z,99782.88
2023-04-26T17:07:09.398Z,99785.97
2023-04-26T17:09:38.519Z,99789.13
2023-04-26T17:12:07.248Z,99788.25
2023-04-26T17:14:34.607Z,99793.78
2023-04-26T17:17:01.620Z,99796.16
2023-04-26T17:19:29.182Z,99789.84
2023-04-26T17:21:56.160Z,99795.44
2023-04-26T17:24:23.184Z,99795.91
2023-04-26T17:26:50.174Z,99792.03
2023-04-26T17:29:17.153Z,99800.34
2023-04-26T17:31:44.466Z,99796.78
2023-04-26T17:34:11.614Z,99791.59
2023-04-26T17:36:38.563Z,99792.16
2023-04-26T17:39:06.330Z,99792.94
2023-04-26T17:41:33.389Z,99799.09
2023-04-26T17:44:00.445Z,99799.63
2023-04-26T17:46:27.586Z,99797.44
2023-04-26T17:48:55.335Z,99793.44
2023-04-26T17:51:22.281Z,99801.22
2023-04-26T17:53:49.216Z,99797.19
2023-04-26T17:56:16.148Z,99799.56
2023-04-26T17:58:43.077Z,99802.56
2023-04-26T18:01:10.008Z,99805.78
2023-04-26T18:03:37.077Z,99805.44
2023-04-26T18:06:04.535Z,99804.09
2023-04-26T18:08:31.472Z,99808.94
2023-04-26T18:10:58.654Z,99804.88
2023-04-26T18:13:25.576Z,99809.44
2023-04-26T18:15:55.027Z,99811.59
2023-04-26T18:18:21.968Z,99809.19
2023-04-26T18:20:48.879Z,99812.13
2023-04-26T18:23:16.304Z,99816.72
2023-04-26T18:25:43.319Z,99817.81
2023-04-26T18:28:10.563Z,99820.75
2023-04-26T18:30:37.531Z,99821.84
2023-04-26T18:33:05.049Z,99822.91
2023-04-26T18:35:32.089Z,99825.84
2023-04-26T18:37:59.010Z,99832.50
2023-04-26T18:40:26.069Z,99834.84
2023-04-26T18:42:53.034Z,99829.31
2023-04-26T18:45:19.986Z,99832.63
2023-04-26T18:47:47.328Z,99834.09
2023-04-26T18:50:14.637Z,99840.09
2023-04-26T18:52:41.711Z,99837.84
2023-04-26T18:55:09.362Z,99834.34
2023-04-26T18:57:37.843Z,99836.22
2023-04-26T19:00:06.666Z,99839.72
2023-04-26T19:02:36.142Z,99838.72
2023-04-26T19:05:04.607Z,99837.69
2023-04-26T19:07:31.677Z,99833.75
2023-04-26T19:10:00.813Z,99839.56
2023-04-26T19:12:28.102Z,99838.31
2023-04-26T19:14:55.333Z,99849.63
2023-04-26T19:17:22.808Z,99858.91
2023-04-26T19:19:53.851Z,99849.03
2023-04-26T19:22:20.880Z,99850.25
2023-04-26T19:24:52.696Z,99858.09
2023-04-26T19:27:19.639Z,99859.09
2023-04-26T19:29:46.650Z,99855.38
2023-04-26T19:32:14.448Z,99856.00
2023-04-26T19:34:41.541Z,99865.47
2023-04-26T19:37:08.528Z,99864.22
2023-04-26T19:39:35.486Z,99866.28
2023-04-26T19:42:03.377Z,99864.63
2023-04-26T19:44:31.307Z,99864.00
2023-04-26T19:46:58.355Z,99860.09
2023-04-26T19:49:27.204Z,99859.44
2023-04-26T19:51:55.542Z,99866.03
2023-04-26T19:54:22.565Z,99867.47
2023-04-26T19:56:49.512Z,99867.06
2023-04-26T19:59:16.456Z,99867.66
2023-04-26T20:01:43.500Z,99863.72
2023-04-26T20:04:10.568Z,99870.28
2023-04-26T20:06:37.696Z,99858.97
2023-04-26T20:09:06.674Z,99857.50
2023-04-26T20:11:33.840Z,99860.38
2023-04-26T20:14:01.094Z,99864.06
2023-04-26T20:16:28.540Z,99863.25
2023-04-26T20:18:55.595Z,99865.31
2023-04-26T20:21:22.571Z,99869.03
2023-04-26T20:23:49.544Z,99869.03
2023-04-26T20:26:16.500Z,99868.56
2023-04-26T20:28:43.550Z,99867.97
2023-04-26T20:31:10.859Z,99862.78
2023-04-26T20:33:37.941Z,99862.38
2023-04-26T20:36:05.220Z,99868.09
2023-04-26T20:38:32.173Z,99866.88
2023-04-26T20:40:59.718Z,99861.91
2023-04-26T20:43:26.652Z,99865.00
2023-04-26T20:45:53.605Z,99865.78
2023-04-26T20:48:20.914Z,99866.38
2023-04-26T20:50:47.847Z,99864.31
2023-04-26T20:53:14.752Z,99861.41
2023-04-26T20:55:41.672Z,99868.78
2023-04-26T20:58:08.616Z,99865.47
2023-04-26T21:00:35.841Z,99866.91
2023-04-26T21:03:03.005Z,99871.59
2023-04-26T21:05:30.027Z,99870.34
2023-04-26T21:07:56.938Z,99866.22
2023-04-26T21:10:23.888Z,99871.13
2023-04-26T21:12:51.264Z,99878.72
2023-04-26T21:15:18.402Z,99878.28
2023-04-26T21:17:45.525Z,99881.34
2023-04-26T21:20:12.688Z,99877.41
2023-04-26T21:22:39.610Z,99876.97
2023-04-26T21:25:07.811Z,99877.16
2023-04-26T21:27:35.517Z,99877.56
2023-04-26T21:30:02.451Z,99882.25
2023-04-26T21:32:29.430Z,99883.69
2023-04-26T21:34:56.673Z,99885.06
2023-04-26T21:37:24.189Z,99882.97
2023-04-26T21:39:51.229Z,99885.22
2023-04-26T21:42:18.287Z,99882.28
2023-04-26T21:44:45.282Z,99895.38
2023-04-26T21:47:12.243Z,99891.47
2023-04-26T21:49:39.547Z,99891.84
2023-04-26T21:52:06.535Z,99884.41
2023-04-26T21:54:33.497Z,99891.16
2023-04-26T21:57:00.422Z,99890.53
2023-04-26T21:59:27.366Z,99889.25
2023-04-26T22:01:54.310Z,99894.28
2023-04-26T22:04:21.716Z,99895.69
2023-04-26T22:06:49.914Z,99894.22
2023-04-26T22:09:16.965Z,99898.28
2023-04-26T22:11:43.932Z,99893.31
2023-04-26T22:14:10.920Z,99898.22
2023-04-26T22:16:37.974Z,99898.59
2023-04-26T22:19:05.091Z,99896.47
2023-04-26T22:21:32.235Z,99903.84
2023-04-26T22:23:59.804Z,99905.25
2023-04-26T22:26:26.783Z,99905.63
2023-04-26T22:28:53.710Z,99900.00
2023-04-26T22:31:20.717Z,99901.22
2023-04-26T22:33:47.698Z,99900.75
2023-04-26T22:36:14.633Z,99905.84
2023-04-26T22:38:41.592Z,99905.38
2023-04-26T22:41:08.642Z,99913.75
2023-04-26T22:43:36.330Z,99921.28
2023-04-26T22:46:03.317Z,99919.00
2023-04-26T22:48:30.233Z,99924.69
2023-04-26T22:50:57.503Z,99926.72
2023-04-26T22:53:24.484Z,99926.25
2023-04-26T22:55:51.825Z,99928.28
2023-04-26T22:58:18.877Z,99931.34
2023-04-26T23:00:45.918Z,99929.03
2023-04-26T23:03:13.019Z,99937.22
2023-04-26T23:05:40.188Z,99934.06
2023-04-26T23:08:07.216Z,99932.59
2023-04-26T23:10:34.134Z,99934.81
2023-04-26T23:13:01.070Z,99929.66
2023-04-26T23:15:27.991Z,99934.53
2023-04-26T23:17:54.960Z,99934.06
2023-04-26T23:20:22.671Z,99937.75
2023-04-26T23:22:49.636Z,99936.09
2023-04-26T23:25:16.677Z,99932.78
2023-04-26T23:27:43.638Z,99941.13
2023-04-26T23:30:11.279Z,99938.47
2023-04-26T23:32:38.283Z,99935.38
2023-04-26T23:35:06.470Z,99940.84
2023-04-26T23:37:33.538Z,99945.53
2023-04-26T23:40:00.550Z,99942.88
2023-04-26T23:42:27.469Z,99939.56
2023-04-26T23:44:54.391Z,99937.94
2023-04-26T23:47:21.295Z,99933.56
2023-04-26T23:49:48.254Z,99938.28
2023-04-26T23:52:15.274Z,99930.47
2023-04-26T23:54:42.222Z,99926.34
2023-04-26T23:57:09.151Z,99924.66
2023-04-26T23:59:36.083Z,99922.38
